createdAt,value
2022-12-03T00:01:45.964Z,21.07
2022-12-03T00:05:49.382Z,21.03
2022-12-03T00:09:52.180Z,21.30
2022-12-03T00:13:56.175Z,21.87
2022-12-03T00:17:58.840Z,23.93
2022-12-03T00:22:01.466Z,21.57
2022-12-03T00:26:04.416Z,22.60
2022-12-03T00:30:10.977Z,24.53
2022-12-03T00:34:13.980Z,23.90
2022-12-03T00:38:16.744Z,21.27
2022-12-03T00:42:19.634Z,21.43
2022-12-03T00:46:23.660Z,22.43
2022-12-03T00:50:26.409Z,23.47
2022-12-03T00:54:32.161Z,21.97
2022-12-03T00:58:35.076Z,23.40
2022-12-03T01:02:39.478Z,22.73
2022-12-03T01:06:42.535Z,22.93
2022-12-03T01:10:45.197Z,21.53
2022-12-03T01:14:48.017Z,22.43
2022-12-03T01:18:52.408Z,22.33
2022-12-03T01:22:55.748Z,21.87
2022-12-03T01:26:58.424Z,23.67
2022-12-03T01:31:18.631Z,24.30
2022-12-03T01:35:22.680Z,23.50
2022-12-03T01:39:29.326Z,24.47
2022-12-03T01:43:32.283Z,22.97
2022-12-03T01:47:36.255Z,22.33
2022-12-03T01:51:40.281Z,21.57
2022-12-03T01:55:48.455Z,22.73
2022-12-03T01:59:52.141Z,23.63
2022-12-03T02:03:54.872Z,22.33
2022-12-03T02:07:59.197Z,23.10
2022-12-03T02:12:01.948Z,22.63
2022-12-03T02:16:05.209Z,23.43
2022-12-03T02:20:10.323Z,22.70
2022-12-03T02:24:22.309Z,23.17
2022-12-03T02:28:26.378Z,22.90
2022-12-03T02:32:29.215Z,23.37
2022-12-03T02:36:31.998Z,23.03
2022-12-03T02:40:35.093Z,22.33
2022-12-03T02:44:39.345Z,22.67
2022-12-03T02:48:42.201Z,23.30
2022-12-03T02:52:46.227Z,23.83
2022-12-03T02:56:48.923Z,22.30
2022-12-03T03:00:54.463Z,21.60
2022-12-03T03:04:57.750Z,23.73
2022-12-03T03:09:00.788Z,23.87
2022-12-03T03:13:05.166Z,22.93
2022-12-03T03:17:09.509Z,23.67
2022-12-03T03:21:13.305Z,23.10
2022-12-03T03:25:18.512Z,22.93
2022-12-03T03:29:21.331Z,23.87
2022-12-03T03:33:25.529Z,23.97
2022-12-03T03:37:29.171Z,22.47
2022-12-03T03:41:32.570Z,24.10
2022-12-03T03:45:35.317Z,24.03
2022-12-03T03:49:39.349Z,24.20
2022-12-03T03:53:44.493Z,24.00
2022-12-03T03:57:47.824Z,23.60
2022-12-03T04:01:50.675Z,23.47
2022-12-03T04:05:54.740Z,24.17
2022-12-03T04:09:57.394Z,24.97
2022-12-03T04:14:00.055Z,24.97
2022-12-03T04:18:20.392Z,25.23
2022-12-03T04:22:42.656Z,24.77
2022-12-03T04:27:02.814Z,24.33
2022-12-03T04:31:25.688Z,24.87
2022-12-03T04:35:42.582Z,23.93
2022-12-03T04:39:46.942Z,25.00
2022-12-03T04:44:03.515Z,23.43
2022-12-03T04:48:06.511Z,23.43
2022-12-03T04:52:09.798Z,23.93
2022-12-03T04:56:14.410Z,26.17
2022-12-03T05:00:17.780Z,25.23
2022-12-03T05:04:20.864Z,23.87
2022-12-03T05:08:23.554Z,24.27
2022-12-03T05:12:27.900Z,24.43
2022-12-03T05:16:30.860Z,25.57
2022-12-03T05:20:44.735Z,24.00
2022-12-03T05:24:53.103Z,24.87
2022-12-03T05:28:57.349Z,23.57
2022-12-03T05:33:00.083Z,24.37
2022-12-03T05:37:03.199Z,23.37
2022-12-03T05:41:26.866Z,23.07
2022-12-03T05:45:32.748Z,23.73
2022-12-03T05:49:35.385Z,23.37
2022-12-03T05:53:38.278Z,22.63
2022-12-03T05:57:41.028Z,22.73
2022-12-03T06:01:45.556Z,22.90
2022-12-03T06:05:48.529Z,23.70
2022-12-03T06:09:51.161Z,23.37
2022-12-03T06:13:54.096Z,23.80
2022-12-03T06:17:58.078Z,24.17
2022-12-03T06:22:00.780Z,24.10
2022-12-03T06:26:03.390Z,23.20
2022-12-03T06:30:08.562Z,22.97
2022-12-03T06:34:12.627Z,23.10
2022-12-03T06:38:15.424Z,23.30
2022-12-03T06:42:18.048Z,23.03
2022-12-03T06:46:20.967Z,22.97
2022-12-03T06:50:25.100Z,22.30
2022-12-03T06:54:27.685Z,22.70
2022-12-03T06:58:30.346Z,22.73
2022-12-03T07:02:33.132Z,21.90
2022-12-03T07:06:37.210Z,22.97
2022-12-03T07:10:39.861Z,23.53
2022-12-03T07:14:42.508Z,23.53
2022-12-03T07:18:45.383Z,23.20
2022-12-03T07:22:49.372Z,22.43
2022-12-03T07:26:52.330Z,23.23
2022-12-03T07:30:55.342Z,23.13
2022-12-03T07:34:58.044Z,22.70
2022-12-03T07:39:02.073Z,22.37
2022-12-03T07:43:05.441Z,21.60
2022-12-03T07:47:08.204Z,21.47
2022-12-03T07:51:15.220Z,21.97
2022-12-03T07:55:19.666Z,22.20
2022-12-03T07:59:22.333Z,21.40
2022-12-03T08:03:25.019Z,21.33
2022-12-03T08:07:27.941Z,20.40
2022-12-03T08:11:33.624Z,19.33
2022-12-03T08:15:39.543Z,21.33
2022-12-03T08:19:44.970Z,20.77
2022-12-03T08:23:48.002Z,21.77
2022-12-03T08:27:53.148Z,21.53
2022-12-03T08:31:57.111Z,21.33
2022-12-03T08:36:00.219Z,23.27
2022-12-03T08:40:03.040Z,23.73
2022-12-03T08:44:19.370Z,25.27
2022-12-03T08:48:33.652Z,24.03
2022-12-03T08:52:36.866Z,27.10
2022-12-03T08:56:40.120Z,21.13
2022-12-03T09:00:44.885Z,23.63
2022-12-03T09:04:47.823Z,30.33
2022-12-03T09:08:50.982Z,22.70
2022-12-03T09:12:53.810Z,22.97
2022-12-03T09:16:57.926Z,20.93
2022-12-03T09:21:01.084Z,23.27
2022-12-03T09:25:03.723Z,23.40
2022-12-03T09:29:11.935Z,27.50
2022-12-03T09:33:16.552Z,21.43
2022-12-03T09:37:19.259Z,20.63
2022-12-03T09:41:22.105Z,21.67
2022-12-03T09:45:25.127Z,20.53
2022-12-03T09:49:31.822Z,20.60
2022-12-03T09:53:40.857Z,20.70
2022-12-03T09:57:43.926Z,18.57
2022-12-03T10:01:46.694Z,21.27
2022-12-03T10:05:51.503Z,21.37
2022-12-03T10:09:54.542Z,20.53
2022-12-03T10:13:59.068Z,22.00
2022-12-03T10:18:02.120Z,21.37
2022-12-03T10:22:06.470Z,20.47
2022-12-03T10:26:09.430Z,21.63
2022-12-03T10:30:17.579Z,20.13
2022-12-03T10:34:25.900Z,22.53
2022-12-03T10:38:30.162Z,20.83
2022-12-03T10:42:34.755Z,21.77
2022-12-03T10:46:37.773Z,21.47
2022-12-03T10:50:48.905Z,20.93
2022-12-03T10:54:53.309Z,20.30
2022-12-03T10:58:56.439Z,18.70
2022-12-03T11:02:59.098Z,18.63
2022-12-03T11:07:03.072Z,17.90
2022-12-03T11:11:08.832Z,16.57
2022-12-03T11:15:16.522Z,19.00
2022-12-03T11:19:21.566Z,16.80
2022-12-03T11:23:58.022Z,17.57
2022-12-03T11:28:38.196Z,18.30
2022-12-03T11:33:09.767Z,20.37
2022-12-03T11:37:26.416Z,15.60
2022-12-03T11:41:31.794Z,16.37
2022-12-03T11:45:35.887Z,15.07
2022-12-03T11:49:48.841Z,15.40
2022-12-03T11:53:53.114Z,16.87
2022-12-03T11:57:58.548Z,18.50
2022-12-03T12:02:01.198Z,16.17
2022-12-03T12:06:07.943Z,13.00
2022-12-03T12:10:12.042Z,16.10
2022-12-03T12:14:14.814Z,14.67
2022-12-03T12:18:37.286Z,15.03
2022-12-03T12:22:41.334Z,16.63
2022-12-03T12:26:51.391Z,13.70
2022-12-03T12:30:54.080Z,15.40
2022-12-03T12:35:00.585Z,14.10
2022-12-03T12:39:09.023Z,14.40
2022-12-03T12:43:23.765Z,15.97
2022-12-03T12:47:27.246Z,14.80
2022-12-03T12:51:30.201Z,13.53
2022-12-03T12:55:34.218Z,14.33
2022-12-03T12:59:36.860Z,13.23
2022-12-03T13:03:40.665Z,13.43
2022-12-03T13:07:44.506Z,13.23
2022-12-03T13:11:53.178Z,12.87
2022-12-03T13:16:01.336Z,14.37
2022-12-03T13:20:08.601Z,12.23
2022-12-03T13:24:27.850Z,15.13
2022-12-03T13:28:33.679Z,11.37
2022-12-03T13:32:38.555Z,10.83
2022-12-03T13:36:43.917Z,10.00
2022-12-03T13:40:47.062Z,10.97
2022-12-03T13:44:51.237Z,11.67
2022-12-03T13:48:56.362Z,10.90
2022-12-03T13:53:04.435Z,11.17
2022-12-03T13:57:07.125Z,10.47
2022-12-03T14:01:11.500Z,10.63
2022-12-03T14:05:14.242Z,10.37
2022-12-03T14:09:16.852Z,10.70
2022-12-03T14:13:19.873Z,10.13
2022-12-03T14:17:24.066Z,10.40
2022-12-03T14:21:26.722Z,9.97
2022-12-03T14:25:29.400Z,13.70
2022-12-03T14:29:32.298Z,9.93
2022-12-03T14:33:36.540Z,9.77
2022-12-03T14:37:39.245Z,9.57
2022-12-03T14:41:59.322Z,9.27
2022-12-03T14:46:02.176Z,9.73
2022-12-03T14:50:08.246Z,9.47
2022-12-03T14:54:11.100Z,9.63
2022-12-03T14:58:14.115Z,8.60
2022-12-03T15:02:16.853Z,8.67
2022-12-03T15:06:21.042Z,9.53
2022-12-03T15:10:23.742Z,9.17
2022-12-03T15:14:26.831Z,9.37
2022-12-03T15:18:30.661Z,29.90
2022-12-03T15:22:35.112Z,10.67
2022-12-03T15:26:38.234Z,11.43
2022-12-03T15:30:40.972Z,10.00
2022-12-03T15:34:43.835Z,9.17
2022-12-03T15:39:03.095Z,9.17
2022-12-03T15:43:06.064Z,11.20
2022-12-03T15:47:08.990Z,9.30
2022-12-03T15:51:11.718Z,9.40
2022-12-03T15:55:16.232Z,10.40
2022-12-03T15:59:18.862Z,10.53
2022-12-03T16:03:21.628Z,9.53
2022-12-03T16:07:24.352Z,9.37
2022-12-03T16:11:28.347Z,10.57
2022-12-03T16:15:31.107Z,9.97
2022-12-03T16:19:33.870Z,18.83
2022-12-03T16:23:36.768Z,11.13
2022-12-03T16:27:40.767Z,10.47
2022-12-03T16:31:43.655Z,10.67
2022-12-03T16:35:46.361Z,9.37
2022-12-03T16:39:50.575Z,10.50
2022-12-03T16:43:54.657Z,10.87
2022-12-03T16:47:57.370Z,10.63
2022-12-03T16:52:00.038Z,11.60
2022-12-03T16:56:03.280Z,18.23
2022-12-03T17:00:08.748Z,10.87
2022-12-03T17:04:11.402Z,10.80
2022-12-03T17:08:14.661Z,10.50
2022-12-03T17:12:17.397Z,9.87
2022-12-03T17:16:21.529Z,11.10
2022-12-03T17:20:24.227Z,10.43
2022-12-03T17:24:26.930Z,9.03
2022-12-03T17:28:29.819Z,10.40
2022-12-03T17:32:34.181Z,10.00
2022-12-03T17:36:37.001Z,10.80
2022-12-03T17:40:39.813Z,11.37
2022-12-03T17:44:42.539Z,10.80
2022-12-03T17:48:46.651Z,11.27
2022-12-03T17:52:49.680Z,13.23
2022-12-03T17:56:52.488Z,11.80
2022-12-03T18:01:00.489Z,11.93
2022-12-03T18:05:07.252Z,10.63
2022-12-03T18:09:09.981Z,11.53
2022-12-03T18:13:12.715Z,11.33
2022-12-03T18:17:15.345Z,11.60
2022-12-03T18:21:19.711Z,11.87
2022-12-03T18:25:22.347Z,12.60
2022-12-03T18:29:25.052Z,13.90
2022-12-03T18:33:28.381Z,20.53
2022-12-03T18:37:33.006Z,14.10
2022-12-03T18:41:36.195Z,13.50
2022-12-03T18:45:39.066Z,12.17
2022-12-03T18:49:42.132Z,14.00
2022-12-03T18:53:46.562Z,15.53
2022-12-03T18:57:49.323Z,12.67
2022-12-03T19:01:52.114Z,13.27
2022-12-03T19:05:54.765Z,13.43
2022-12-03T19:09:58.824Z,13.57
2022-12-03T19:14:02.864Z,16.67
2022-12-03T19:18:07.400Z,13.67
2022-12-03T19:22:10.384Z,14.27
2022-12-03T19:26:14.490Z,16.97
2022-12-03T19:30:17.648Z,13.40
2022-12-03T19:34:20.767Z,13.73
2022-12-03T19:38:24.192Z,12.80
2022-12-03T19:42:28.665Z,13.37
2022-12-03T19:46:31.421Z,12.60
2022-12-03T19:50:34.122Z,13.30
2022-12-03T19:54:37.425Z,12.77
2022-12-03T19:58:42.947Z,13.43
2022-12-03T20:02:45.701Z,13.00
2022-12-03T20:06:48.460Z,14.63
2022-12-03T20:10:51.145Z,12.33
2022-12-03T20:14:55.623Z,13.03
2022-12-03T20:18:59.555Z,11.87
2022-12-03T20:23:02.566Z,11.63
2022-12-03T20:27:05.270Z,14.90
2022-12-03T20:31:13.273Z,13.33
2022-12-03T20:35:16.171Z,18.97
2022-12-03T20:39:19.229Z,15.30
2022-12-03T20:43:21.964Z,18.50
2022-12-03T20:47:25.959Z,16.40
2022-12-03T20:51:30.699Z,13.83
2022-12-03T20:55:33.537Z,12.37
2022-12-03T20:59:36.158Z,12.97
2022-12-03T21:03:40.455Z,12.97
2022-12-03T21:07:43.198Z,13.20
2022-12-03T21:11:46.060Z,15.00
2022-12-03T21:15:48.698Z,15.47
2022-12-03T21:19:53.326Z,20.20
2022-12-03T21:23:57.073Z,13.10
2022-12-03T21:28:00.042Z,12.70
2022-12-03T21:32:03.084Z,12.67
2022-12-03T21:36:08.581Z,12.47
2022-12-03T21:40:11.902Z,14.90
2022-12-03T21:44:15.093Z,13.23
2022-12-03T21:48:18.354Z,12.60
2022-12-03T21:52:22.376Z,13.23
2022-12-03T21:56:24.988Z,12.80
2022-12-03T22:00:27.731Z,12.20
2022-12-03T22:04:30.691Z,13.50
2022-12-03T22:08:34.723Z,12.83
2022-12-03T22:12:37.686Z,12.50
2022-12-03T22:16:40.331Z,13.63
2022-12-03T22:20:43.011Z,12.80
2022-12-03T22:24:47.581Z,12.40
2022-12-03T22:28:50.833Z,13.03
2022-12-03T22:32:53.798Z,12.93
2022-12-03T22:36:56.517Z,12.17
2022-12-03T22:41:00.983Z,12.40
2022-12-03T22:45:04.070Z,11.90
2022-12-03T22:49:07.775Z,11.03
2022-12-03T22:53:10.877Z,11.53
2022-12-03T22:57:15.702Z,11.07
2022-12-03T23:01:22.630Z,11.30
2022-12-03T23:05:25.470Z,10.93
2022-12-03T23:09:28.164Z,10.33
2022-12-03T23:13:32.162Z,10.67
2022-12-03T23:17:34.822Z,10.60
2022-12-03T23:21:37.659Z,10.87
2022-12-03T23:25:40.503Z,10.60
2022-12-03T23:29:44.823Z,10.80
2022-12-03T23:33:48.466Z,9.63
2022-12-03T23:37:51.185Z,9.23
2022-12-03T23:41:53.920Z,9.57
2022-12-03T23:46:03.713Z,9.33
2022-12-03T23:50:07.632Z,9.23
2022-12-03T23:54:12.055Z,9.33
2022-12-03T23:58:14.991Z,9.17
